createdAt,value
2019-03-22T00:02:10.206Z,53.77
2019-03-22T00:04:43.815Z,54.94
2019-03-22T00:07:17.270Z,56.10
2019-03-22T00:09:49.765Z,57.24
2019-03-22T00:12:23.410Z,58.39
2019-03-22T00:14:55.785Z,59.39
2019-03-22T00:17:28.305Z,60.38
2019-03-22T00:20:00.751Z,61.30
2019-03-22T00:22:32.947Z,62.26
2019-03-22T00:25:07.686Z,65.43
2019-03-22T00:27:40.327Z,59.99
2019-03-22T00:30:13.620Z,54.77
2019-03-22T00:32:46.070Z,51.43
2019-03-22T00:35:18.630Z,52.27
2019-03-22T00:37:51.148Z,53.33
2019-03-22T00:40:23.535Z,54.49
2019-03-22T00:42:55.848Z,55.95
2019-03-22T00:45:28.170Z,56.58
2019-03-22T00:48:00.525Z,57.70
2019-03-22T00:50:32.855Z,59.23
2019-03-22T00:53:05.331Z,60.45
2019-03-22T00:55:37.753Z,61.37
2019-03-22T00:58:10.346Z,62.54
2019-03-22T01:00:42.905Z,65.99
2019-03-22T01:03:15.490Z,60.88
2019-03-22T01:05:49.050Z,55.89
2019-03-22T01:08:22.840Z,52.51
2019-03-22T01:10:55.190Z,53.15
2019-03-22T01:13:27.778Z,53.95
2019-03-22T01:16:00.295Z,55.22
2019-03-22T01:18:33.580Z,56.33
2019-03-22T01:21:05.785Z,57.53
2019-03-22T01:23:38.606Z,59.16
2019-03-22T01:26:11.023Z,60.16
2019-03-22T01:28:43.245Z,61.14
2019-03-22T01:31:15.880Z,61.96
2019-03-22T01:33:48.415Z,62.63
2019-03-22T01:36:20.755Z,66.66
2019-03-22T01:38:53.090Z,62.04
2019-03-22T01:41:25.661Z,56.55
2019-03-22T01:43:58.135Z,52.51
2019-03-22T01:46:30.407Z,52.81
2019-03-22T01:49:02.796Z,54.01
2019-03-22T01:51:35.256Z,55.62
2019-03-22T01:54:07.800Z,57.05
2019-03-22T01:56:40.312Z,58.02
2019-03-22T01:59:12.565Z,59.41
2019-03-22T02:01:44.755Z,60.77
2019-03-22T02:04:17.125Z,61.80
2019-03-22T02:06:49.305Z,62.98
2019-03-22T02:09:21.666Z,67.50
2019-03-22T02:11:53.819Z,62.07
2019-03-22T02:14:26.100Z,56.39
2019-03-22T02:16:58.375Z,52.88
2019-03-22T02:19:30.735Z,53.34
2019-03-22T02:22:03.240Z,54.52
2019-03-22T02:24:35.685Z,55.74
2019-03-22T02:27:08.057Z,56.98
2019-03-22T02:29:40.425Z,58.12
2019-03-22T02:32:13.852Z,59.07
2019-03-22T02:34:46.089Z,60.41
2019-03-22T11:52:58.155Z,62.21
2019-03-22T11:55:30.727Z,62.75
2019-03-22T11:58:03.091Z,64.52
2019-03-22T12:00:35.565Z,59.50
2019-03-22T12:03:08.295Z,54.23
2019-03-22T12:05:40.861Z,52.40
2019-03-22T12:08:13.465Z,52.34
2019-03-22T12:10:45.655Z,53.18
2019-03-22T12:13:18.025Z,53.95
2019-03-22T12:15:50.317Z,54.58
2019-03-22T12:18:22.545Z,55.46
2019-03-22T12:20:56.586Z,55.77
2019-03-22T12:23:29.040Z,56.83
2019-03-22T12:26:01.936Z,57.33
2019-03-22T12:28:34.650Z,57.80
2019-03-22T12:31:07.550Z,58.39
2019-03-22T12:33:40.480Z,58.94
2019-03-22T12:36:12.961Z,59.35
2019-03-22T12:38:45.430Z,60.38
2019-03-22T12:41:17.815Z,61.06
2019-03-22T12:43:50.290Z,61.43
2019-03-22T12:46:23.135Z,61.87
2019-03-22T12:48:55.790Z,62.09
2019-03-22T12:51:28.231Z,62.53
2019-03-22T12:54:01.065Z,63.66
2019-03-22T12:56:34.810Z,59.25
2019-03-22T12:59:07.650Z,55.39
2019-03-22T13:01:40.430Z,52.68
2019-03-22T13:04:12.975Z,52.85
2019-03-22T13:06:45.451Z,53.63
2019-03-22T13:09:17.975Z,54.33
2019-03-22T13:11:50.246Z,55.30
2019-03-22T13:14:22.700Z,56.22
2019-03-22T13:16:54.615Z,57.27
2019-03-22T13:19:27.271Z,58.31
2019-03-22T13:21:59.745Z,58.94
2019-03-22T13:24:32.094Z,59.51
2019-03-22T13:27:04.500Z,60.12
2019-03-22T13:29:36.829Z,60.78
2019-03-22T13:32:09.390Z,60.79
2019-03-22T13:34:41.865Z,61.63
2019-03-22T13:37:14.125Z,62.17
2019-03-22T13:39:46.360Z,63.30
2019-03-22T13:42:18.910Z,63.51
2019-03-22T13:44:51.156Z,60.19
2019-03-22T13:47:23.775Z,55.36
2019-03-22T13:49:56.368Z,52.48
2019-03-22T13:52:28.750Z,52.71
2019-03-22T13:55:01.515Z,53.55
2019-03-22T13:57:33.970Z,54.53
2019-03-22T14:00:15.675Z,55.06
2019-03-22T14:02:48.165Z,55.92
2019-03-22T14:05:20.315Z,56.66
2019-03-22T14:07:52.679Z,57.90
2019-03-22T14:10:32.936Z,59.28
2019-03-22T14:13:06.755Z,59.28
2019-03-22T14:15:38.935Z,60.17
2019-03-22T14:18:11.445Z,61.03
2019-03-22T14:20:44.355Z,61.70
2019-03-22T14:23:16.696Z,62.48
2019-03-22T14:25:49.422Z,63.68
2019-03-22T14:28:21.875Z,59.81
2019-03-22T14:30:54.359Z,55.94
2019-03-22T14:33:26.655Z,53.58
2019-03-22T14:35:59.566Z,54.02
2019-03-22T14:38:32.055Z,54.66
2019-03-22T14:41:04.879Z,55.72
2019-03-22T14:43:37.179Z,56.74
2019-03-22T14:46:09.619Z,57.36
2019-03-22T14:48:43.625Z,58.57
2019-03-22T14:51:16.205Z,59.30
2019-03-22T14:53:49.025Z,60.55
2019-03-22T14:56:21.925Z,61.57
2019-03-22T14:58:54.345Z,61.63
2019-03-22T15:01:27.050Z,63.13
2019-03-22T15:03:59.395Z,63.65
2019-03-22T15:06:31.895Z,60.78
2019-03-22T15:09:06.260Z,55.34
2019-03-22T15:11:39.010Z,53.03
2019-03-22T15:14:29.296Z,53.39
2019-03-22T15:17:12.925Z,54.14
2019-03-22T15:19:47.088Z,55.97
2019-03-22T15:22:27.263Z,56.90
2019-03-22T15:25:17.075Z,57.37
2019-03-22T15:27:51.539Z,58.97
2019-03-22T15:30:43.010Z,60.10
2019-03-22T15:33:20.954Z,61.43
2019-03-22T15:36:13.507Z,61.87
2019-03-22T15:39:03.126Z,62.36
2019-03-22T15:41:37.159Z,64.85
2019-03-22T15:44:09.903Z,59.63
2019-03-22T15:46:42.510Z,56.18
2019-03-22T15:49:15.203Z,56.79
2019-03-22T15:51:48.879Z,57.49
2019-03-22T15:54:21.785Z,58.07
2019-03-22T15:56:54.350Z,59.07
2019-03-22T15:59:26.670Z,59.99
2019-03-22T16:01:59.045Z,61.11
2019-03-22T16:04:31.665Z,61.85
2019-03-22T16:07:04.141Z,62.89
2019-03-22T16:09:36.720Z,64.45
2019-03-22T16:12:09.427Z,59.69
2019-03-22T16:14:42.185Z,54.98
2019-03-22T16:17:14.935Z,52.91
2019-03-22T16:19:47.500Z,53.55
2019-03-22T16:22:20.216Z,54.57
2019-03-22T16:24:52.705Z,55.59
2019-03-22T16:27:25.585Z,56.63
2019-03-22T16:29:58.975Z,57.57
2019-03-22T16:32:31.670Z,58.68
2019-03-22T16:35:05.562Z,59.12
2019-03-22T16:37:38.315Z,60.49
2019-03-22T16:40:12.166Z,61.51
2019-03-22T16:42:45.230Z,62.11
2019-03-22T16:45:33.696Z,63.54
2019-03-22T16:48:06.600Z,64.45
2019-03-22T16:50:40.120Z,59.42
2019-03-22T16:53:12.581Z,55.52
2019-03-22T16:55:45.040Z,56.01
2019-03-22T16:58:17.471Z,56.89
2019-03-22T17:00:50.137Z,57.93
2019-03-22T17:03:22.910Z,58.67
2019-03-22T17:05:55.800Z,60.02
2019-03-22T17:08:28.225Z,60.78
2019-03-22T17:11:00.606Z,61.61
2019-03-22T17:13:32.990Z,62.37
2019-03-22T17:16:05.566Z,64.25
2019-03-22T17:18:39.095Z,59.63
2019-03-22T17:21:11.601Z,55.91
2019-03-22T17:23:43.995Z,56.23
2019-03-22T17:26:16.331Z,56.98
2019-03-22T17:28:48.691Z,57.63
2019-03-22T17:31:21.126Z,59.19
2019-03-22T17:33:53.686Z,60.35
2019-03-22T17:36:26.172Z,60.67
2019-03-22T17:38:58.506Z,61.74
2019-03-22T17:41:30.951Z,63.16
2019-03-22T17:44:03.314Z,65.98
2019-03-22T17:46:35.830Z,61.08
2019-03-22T17:49:08.201Z,56.57
2019-03-22T17:51:40.500Z,53.20
2019-03-22T17:54:12.867Z,53.70
2019-03-22T17:56:45.332Z,54.62
2019-03-22T17:59:17.786Z,55.90
2019-03-22T18:01:50.125Z,57.12
2019-03-22T18:04:24.309Z,58.40
2019-03-22T18:06:56.900Z,59.91
2019-03-22T18:09:29.286Z,60.91
2019-03-22T18:12:01.645Z,61.89
2019-03-22T18:14:33.961Z,62.73
2019-03-22T18:17:06.286Z,66.08
2019-03-22T18:19:38.946Z,61.37
2019-03-22T18:22:11.181Z,55.99
2019-03-22T18:24:43.431Z,52.66
2019-03-22T18:27:15.841Z,53.51
2019-03-22T18:29:47.971Z,55.02
2019-03-22T18:32:20.207Z,56.22
2019-03-22T18:34:52.521Z,57.70
2019-03-22T18:37:25.122Z,58.96
2019-03-22T18:39:57.796Z,59.83
2019-03-22T18:42:30.186Z,60.70
2019-03-22T18:45:02.367Z,61.78
2019-03-22T18:47:35.080Z,62.91
2019-03-22T18:50:09.576Z,65.68
2019-03-22T18:52:43.276Z,60.43
2019-03-22T18:55:15.866Z,54.84
2019-03-22T18:57:48.212Z,52.20
2019-03-22T19:00:20.512Z,53.09
2019-03-22T19:02:52.879Z,54.30
2019-03-22T19:05:25.316Z,55.35
2019-03-22T19:07:57.640Z,56.65
2019-03-22T19:10:30.042Z,57.79
2019-03-22T19:13:02.366Z,59.03
2019-03-22T19:15:34.851Z,60.32
2019-03-22T19:18:07.291Z,61.11
2019-03-22T19:20:40.179Z,62.11
2019-03-22T19:23:12.637Z,64.78
2019-03-22T19:25:45.105Z,59.52
2019-03-22T19:28:17.486Z,55.40
2019-03-22T19:30:51.200Z,55.82
2019-03-22T19:33:24.111Z,56.87
2019-03-22T19:35:56.570Z,57.96
2019-03-22T19:38:28.951Z,59.23
2019-03-22T19:41:01.610Z,60.12
2019-03-22T19:43:34.447Z,61.16
2019-03-22T19:46:06.707Z,62.21
2019-03-22T19:48:39.034Z,64.67
2019-03-22T19:51:11.576Z,59.51
2019-03-22T19:53:44.226Z,55.42
2019-03-22T19:56:16.621Z,56.25
2019-03-22T19:58:48.916Z,57.35
2019-03-22T20:01:21.406Z,58.72
2019-03-22T20:03:53.809Z,59.84
2019-03-22T20:06:26.211Z,61.14
2019-03-22T20:08:58.506Z,62.09
2019-03-22T20:11:31.023Z,63.24
2019-03-22T20:14:03.821Z,65.72
2019-03-22T20:16:35.966Z,60.32
2019-03-22T20:19:08.510Z,55.10
2019-03-22T20:21:41.116Z,52.67
2019-03-22T20:24:13.561Z,53.50
2019-03-22T20:26:46.220Z,54.83
2019-03-22T20:29:18.911Z,55.97
2019-03-22T20:31:51.165Z,57.09
2019-03-22T20:34:23.559Z,58.52
2019-03-22T20:36:56.181Z,59.72
2019-03-22T20:39:28.375Z,60.67
2019-03-22T20:42:00.991Z,61.69
2019-03-22T20:44:34.281Z,62.54
2019-03-22T20:47:06.826Z,64.63
2019-03-22T20:49:39.376Z,59.18
2019-03-22T20:52:11.935Z,55.10
2019-03-22T20:54:44.575Z,55.46
2019-03-22T20:57:17.197Z,56.64
2019-03-22T20:59:49.716Z,57.51
2019-03-22T21:02:22.096Z,58.71
2019-03-22T21:04:55.032Z,59.53
2019-03-22T21:07:27.405Z,60.54
2019-03-22T21:09:59.793Z,61.42
2019-03-22T21:12:32.517Z,62.46
2019-03-22T21:15:06.792Z,64.24
2019-03-22T21:17:39.057Z,59.46
2019-03-22T21:20:11.846Z,54.89
2019-03-22T21:22:44.507Z,55.49
2019-03-22T21:25:16.940Z,56.30
2019-03-22T21:27:50.411Z,57.58
2019-03-22T21:30:22.861Z,58.55
2019-03-22T21:32:55.235Z,59.60
2019-03-22T21:35:36.947Z,60.53
2019-03-22T21:38:10.495Z,61.54
2019-03-22T21:40:35.550Z,61.34
2019-03-22T21:43:07.790Z,63.01
2019-03-22T21:45:40.245Z,65.28
2019-03-22T21:48:12.695Z,60.30
2019-03-22T21:50:45.405Z,55.15
2019-03-22T21:53:17.960Z,52.61
2019-03-22T21:55:50.505Z,53.23
2019-03-22T21:58:22.835Z,54.25
2019-03-22T22:00:55.240Z,55.17
2019-03-22T22:03:27.555Z,56.32
2019-03-22T22:06:00.015Z,57.54
2019-03-22T22:08:32.905Z,58.61
2019-03-22T22:11:05.360Z,59.39
2019-03-22T22:13:37.698Z,60.37
2019-03-22T22:16:10.171Z,61.03
2019-03-22T22:18:42.685Z,62.02
2019-03-22T22:21:16.085Z,63.03
2019-03-22T22:23:48.590Z,65.36
2019-03-22T22:26:21.030Z,59.50
2019-03-22T22:28:53.791Z,55.15
2019-03-22T22:31:26.050Z,55.52
2019-03-22T22:33:59.560Z,56.31
2019-03-22T22:36:32.061Z,57.25
2019-03-22T22:39:06.190Z,58.23
2019-03-22T22:41:40.328Z,59.16
2019-03-22T22:44:12.771Z,59.96
2019-03-22T22:46:45.235Z,60.84
2019-03-22T22:49:17.700Z,61.69
2019-03-22T22:51:49.946Z,62.66
2019-03-22T22:54:22.205Z,64.64
2019-03-22T22:56:54.700Z,59.06
2019-03-22T22:59:26.905Z,54.29
2019-03-22T23:01:59.287Z,54.72
2019-03-22T23:04:32.240Z,55.51
2019-03-22T23:07:04.830Z,56.64
2019-03-22T23:09:37.104Z,57.43
2019-03-22T23:12:09.295Z,58.63
2019-03-22T23:14:41.715Z,59.63
2019-03-22T23:17:14.037Z,60.48
2019-03-22T23:19:46.596Z,61.16
2019-03-22T23:22:18.889Z,62.20
2019-03-22T23:24:51.005Z,65.02
2019-03-22T23:27:24.731Z,59.63
2019-03-22T23:29:56.886Z,54.71
2019-03-22T23:32:29.196Z,55.11
2019-03-22T23:35:01.475Z,56.19
2019-03-22T23:37:34.073Z,57.67
2019-03-22T23:40:07.890Z,58.36
2019-03-22T23:42:41.230Z,59.11
2019-03-22T23:45:13.477Z,60.57
2019-03-22T23:47:45.880Z,61.73
2019-03-22T23:50:18.275Z,62.91
2019-03-22T23:52:50.595Z,65.66
2019-03-22T23:55:22.975Z,60.71
2019-03-22T23:57:55.180Z,55.37
